sensor_id;sensor_type;location;lat;lon;timestamp;P1;durP1;ratioP1;P2;durP2;ratioP2
9218;SDS011;4644;48.858;9.184;2023-04-08T00:01:43;10.03;;;7.60;;
9218;SDS011;4644;48.858;9.184;2023-04-08T00:04:10;9.33;;;8.00;;
9218;SDS011;4644;48.858;9.184;2023-04-08T00:06:38;9.27;;;8.03;;
9218;SDS011;4644;48.858;9.184;2023-04-08T00:09:06;8.43;;;7.53;;
9218;SDS011;4644;48.858;9.184;2023-04-08T00:11:33;9.80;;;8.13;;
9218;SDS011;4644;48.858;9.184;2023-04-08T00:14:01;9.90;;;7.83;;
9218;SDS011;4644;48.858;9.184;2023-04-08T00:16:28;10.37;;;8.43;;
9218;SDS011;4644;48.858;9.184;2023-04-08T00:18:57;11.37;;;8.30;;
9218;SDS011;4644;48.858;9.184;2023-04-08T00:21:24;10.40;;;8.07;;
9218;SDS011;4644;48.858;9.184;2023-04-08T00:23:51;10.67;;;7.93;;
9218;SDS011;4644;48.858;9.184;2023-04-08T00:26:18;9.47;;;7.93;;
9218;SDS011;4644;48.858;9.184;2023-04-08T00:28:45;10.70;;;8.87;;
9218;SDS011;4644;48.858;9.184;2023-04-08T00:31:12;10.60;;;8.60;;
9218;SDS011;4644;48.858;9.184;2023-04-08T00:33:40;11.90;;;9.30;;
9218;SDS011;4644;48.858;9.184;2023-04-08T00:36:08;12.40;;;8.80;;
9218;SDS011;4644;48.858;9.184;2023-04-08T00:38:35;10.10;;;8.37;;
9218;SDS011;4644;48.858;9.184;2023-04-08T00:41:02;10.10;;;8.33;;
9218;SDS011;4644;48.858;9.184;2023-04-08T00:43:29;11.33;;;8.63;;
9218;SDS011;4644;48.858;9.184;2023-04-08T00:45:56;10.17;;;8.47;;
9218;SDS011;4644;48.858;9.184;2023-04-08T00:48:23;10.53;;;8.07;;
9218;SDS011;4644;48.858;9.184;2023-04-08T00:50:52;11.10;;;9.00;;
9218;SDS011;4644;48.858;9.184;2023-04-08T00:53:21;9.07;;;8.10;;
9218;SDS011;4644;48.858;9.184;2023-04-08T00:55:48;13.87;;;8.90;;
9218;SDS011;4644;48.858;9.184;2023-04-08T00:58:15;10.57;;;8.83;;
9218;SDS011;4644;48.858;9.184;2023-04-08T01:00:45;11.17;;;8.23;;
9218;SDS011;4644;48.858;9.184;2023-04-08T01:03:17;10.93;;;8.23;;
9218;SDS011;4644;48.858;9.184;2023-04-08T01:05:54;9.40;;;8.20;;
9218;SDS011;4644;48.858;9.184;2023-04-08T01:08:26;11.80;;;9.23;;
9218;SDS011;4644;48.858;9.184;2023-04-08T01:10:57;10.03;;;8.27;;
9218;SDS011;4644;48.858;9.184;2023-04-08T01:13:27;11.77;;;9.10;;
9218;SDS011;4644;48.858;9.184;2023-04-08T01:16:00;10.90;;;9.20;;
9218;SDS011;4644;48.858;9.184;2023-04-08T01:18:27;11.13;;;8.57;;
9218;SDS011;4644;48.858;9.184;2023-04-08T01:20:57;11.60;;;8.60;;
9218;SDS011;4644;48.858;9.184;2023-04-08T01:23:30;9.90;;;8.33;;
9218;SDS011;4644;48.858;9.184;2023-04-08T01:26:10;11.77;;;8.83;;
9218;SDS011;4644;48.858;9.184;2023-04-08T01:28:46;12.03;;;9.00;;
9218;SDS011;4644;48.858;9.184;2023-04-08T01:31:16;9.70;;;8.37;;
9218;SDS011;4644;48.858;9.184;2023-04-08T01:33:44;10.70;;;8.93;;
9218;SDS011;4644;48.858;9.184;2023-04-08T01:36:13;9.23;;;8.00;;
9218;SDS011;4644;48.858;9.184;2023-04-08T01:38:42;11.00;;;8.53;;
9218;SDS011;4644;48.858;9.184;2023-04-08T01:41:11;10.93;;;9.33;;
9218;SDS011;4644;48.858;9.184;2023-04-08T01:43:38;10.07;;;8.27;;
9218;SDS011;4644;48.858;9.184;2023-04-08T01:46:07;9.40;;;8.47;;
9218;SDS011;4644;48.858;9.184;2023-04-08T01:48:37;10.87;;;9.00;;
9218;SDS011;4644;48.858;9.184;2023-04-08T01:51:05;12.90;;;10.27;;
9218;SDS011;4644;48.858;9.184;2023-04-08T01:53:32;11.37;;;9.50;;
9218;SDS011;4644;48.858;9.184;2023-04-08T01:56:01;11.70;;;8.93;;
9218;SDS011;4644;48.858;9.184;2023-04-08T01:58:35;10.77;;;8.73;;
9218;SDS011;4644;48.858;9.184;2023-04-08T02:01:05;13.47;;;9.97;;
9218;SDS011;4644;48.858;9.184;2023-04-08T02:03:37;11.53;;;9.30;;
9218;SDS011;4644;48.858;9.184;2023-04-08T02:06:06;12.93;;;9.70;;
9218;SDS011;4644;48.858;9.184;2023-04-08T02:08:34;12.70;;;10.67;;
9218;SDS011;4644;48.858;9.184;2023-04-08T02:11:01;16.23;;;10.97;;
9218;SDS011;4644;48.858;9.184;2023-04-08T02:13:28;13.53;;;10.50;;
9218;SDS011;4644;48.858;9.184;2023-04-08T02:15:59;12.20;;;9.97;;
9218;SDS011;4644;48.858;9.184;2023-04-08T02:18:31;12.63;;;10.03;;
9218;SDS011;4644;48.858;9.184;2023-04-08T02:21:07;13.17;;;9.60;;
9218;SDS011;4644;48.858;9.184;2023-04-08T02:23:38;13.27;;;10.13;;
9218;SDS011;4644;48.858;9.184;2023-04-08T02:26:06;13.60;;;10.63;;
9218;SDS011;4644;48.858;9.184;2023-04-08T02:28:38;12.70;;;10.27;;
9218;SDS011;4644;48.858;9.184;2023-04-08T02:31:09;14.77;;;10.03;;
9218;SDS011;4644;48.858;9.184;2023-04-08T02:33:38;13.43;;;10.03;;
9218;SDS011;4644;48.858;9.184;2023-04-08T02:36:05;14.53;;;10.33;;
9218;SDS011;4644;48.858;9.184;2023-04-08T02:38:33;13.03;;;9.87;;
9218;SDS011;4644;48.858;9.184;2023-04-08T02:41:00;14.77;;;10.83;;
9218;SDS011;4644;48.858;9.184;2023-04-08T02:43:28;15.63;;;10.87;;
9218;SDS011;4644;48.858;9.184;2023-04-08T02:45:56;13.33;;;9.43;;
9218;SDS011;4644;48.858;9.184;2023-04-08T02:48:25;13.67;;;10.60;;
9218;SDS011;4644;48.858;9.184;2023-04-08T02:50:52;14.60;;;11.10;;
9218;SDS011;4644;48.858;9.184;2023-04-08T02:53:21;14.80;;;11.37;;
9218;SDS011;4644;48.858;9.184;2023-04-08T02:55:48;18.27;;;10.33;;
9218;SDS011;4644;48.858;9.184;2023-04-08T02:58:15;15.97;;;11.70;;
9218;SDS011;4644;48.858;9.184;2023-04-08T03:00:42;17.43;;;11.67;;
9218;SDS011;4644;48.858;9.184;2023-04-08T03:03:10;16.43;;;12.27;;
9218;SDS011;4644;48.858;9.184;2023-04-08T03:05:38;17.43;;;12.13;;
9218;SDS011;4644;48.858;9.184;2023-04-08T03:08:05;17.67;;;11.83;;
9218;SDS011;4644;48.858;9.184;2023-04-08T03:10:32;18.40;;;12.57;;
9218;SDS011;4644;48.858;9.184;2023-04-08T03:12:59;16.63;;;11.80;;
9218;SDS011;4644;48.858;9.184;2023-04-08T03:15:26;16.90;;;12.17;;
9218;SDS011;4644;48.858;9.184;2023-04-08T03:17:53;15.33;;;11.10;;
9218;SDS011;4644;48.858;9.184;2023-04-08T03:20:20;17.43;;;12.17;;
9218;SDS011;4644;48.858;9.184;2023-04-08T03:22:49;18.33;;;12.60;;
9218;SDS011;4644;48.858;9.184;2023-04-08T03:25:16;17.63;;;11.43;;
9218;SDS011;4644;48.858;9.184;2023-04-08T03:27:43;17.37;;;11.43;;
9218;SDS011;4644;48.858;9.184;2023-04-08T03:30:10;18.63;;;11.53;;
9218;SDS011;4644;48.858;9.184;2023-04-08T03:32:37;17.17;;;11.77;;
9218;SDS011;4644;48.858;9.184;2023-04-08T03:35:05;19.30;;;11.97;;
9218;SDS011;4644;48.858;9.184;2023-04-08T03:37:32;20.20;;;12.10;;
9218;SDS011;4644;48.858;9.184;2023-04-08T03:40:01;20.33;;;11.73;;
9218;SDS011;4644;48.858;9.184;2023-04-08T03:42:29;20.83;;;12.67;;
9218;SDS011;4644;48.858;9.184;2023-04-08T03:44:56;18.13;;;12.57;;
9218;SDS011;4644;48.858;9.184;2023-04-08T03:47:23;18.00;;;11.70;;
9218;SDS011;4644;48.858;9.184;2023-04-08T03:49:51;18.20;;;11.83;;
9218;SDS011;4644;48.858;9.184;2023-04-08T03:52:19;17.73;;;12.07;;
9218;SDS011;4644;48.858;9.184;2023-04-08T03:54:46;20.60;;;12.27;;
9218;SDS011;4644;48.858;9.184;2023-04-08T03:57:14;18.13;;;11.40;;
9218;SDS011;4644;48.858;9.184;2023-04-08T03:59:42;18.93;;;12.63;;
9218;SDS011;4644;48.858;9.184;2023-04-08T04:02:09;20.83;;;12.00;;
9218;SDS011;4644;48.858;9.184;2023-04-08T04:04:35;18.20;;;11.70;;
9218;SDS011;4644;48.858;9.184;2023-04-08T04:07:02;18.17;;;11.83;;
9218;SDS011;4644;48.858;9.184;2023-04-08T04:09:29;19.90;;;13.10;;
9218;SDS011;4644;48.858;9.184;2023-04-08T04:11:56;19.97;;;12.73;;
9218;SDS011;4644;48.858;9.184;2023-04-08T04:14:25;22.70;;;12.87;;
9218;SDS011;4644;48.858;9.184;2023-04-08T04:16:52;18.57;;;11.63;;
9218;SDS011;4644;48.858;9.184;2023-04-08T04:19:19;19.67;;;11.50;;
9218;SDS011;4644;48.858;9.184;2023-04-08T04:21:46;19.17;;;12.33;;
9218;SDS011;4644;48.858;9.184;2023-04-08T04:24:13;19.27;;;12.50;;
9218;SDS011;4644;48.858;9.184;2023-04-08T04:26:40;19.83;;;12.30;;
9218;SDS011;4644;48.858;9.184;2023-04-08T04:29:07;20.47;;;13.67;;
9218;SDS011;4644;48.858;9.184;2023-04-08T04:31:36;19.97;;;12.83;;
9218;SDS011;4644;48.858;9.184;2023-04-08T04:34:03;16.83;;;11.60;;
9218;SDS011;4644;48.858;9.184;2023-04-08T04:36:30;23.90;;;13.37;;
9218;SDS011;4644;48.858;9.184;2023-04-08T04:38:57;21.33;;;13.33;;
9218;SDS011;4644;48.858;9.184;2023-04-08T04:41:24;22.33;;;12.87;;
9218;SDS011;4644;48.858;9.184;2023-04-08T04:43:52;24.50;;;14.40;;
9218;SDS011;4644;48.858;9.184;2023-04-08T04:46:19;20.77;;;13.80;;
9218;SDS011;4644;48.858;9.184;2023-04-08T04:48:48;20.10;;;12.20;;
9218;SDS011;4644;48.858;9.184;2023-04-08T04:51:15;22.53;;;14.17;;
9218;SDS011;4644;48.858;9.184;2023-04-08T04:53:42;23.70;;;13.00;;
9218;SDS011;4644;48.858;9.184;2023-04-08T04:56:09;21.33;;;12.90;;
9218;SDS011;4644;48.858;9.184;2023-04-08T04:58:36;20.37;;;13.50;;
9218;SDS011;4644;48.858;9.184;2023-04-08T05:01:03;21.17;;;13.13;;
9218;SDS011;4644;48.858;9.184;2023-04-08T05:03:30;18.50;;;13.30;;
9218;SDS011;4644;48.858;9.184;2023-04-08T05:05:59;22.63;;;14.00;;
9218;SDS011;4644;48.858;9.184;2023-04-08T05:08:26;23.17;;;14.83;;
9218;SDS011;4644;48.858;9.184;2023-04-08T05:10:53;22.97;;;14.37;;
9218;SDS011;4644;48.858;9.184;2023-04-08T05:13:20;23.20;;;14.00;;
9218;SDS011;4644;48.858;9.184;2023-04-08T05:15:47;22.93;;;13.57;;
9218;SDS011;4644;48.858;9.184;2023-04-08T05:18:14;22.90;;;13.47;;
9218;SDS011;4644;48.858;9.184;2023-04-08T05:20:42;23.43;;;14.10;;
9218;SDS011;4644;48.858;9.184;2023-04-08T05:23:10;20.90;;;13.63;;
9218;SDS011;4644;48.858;9.184;2023-04-08T05:25:37;25.73;;;15.07;;
9218;SDS011;4644;48.858;9.184;2023-04-08T05:28:05;22.30;;;14.40;;
9218;SDS011;4644;48.858;9.184;2023-04-08T05:30:32;22.03;;;14.57;;
9218;SDS011;4644;48.858;9.184;2023-04-08T05:32:59;20.47;;;14.10;;
9218;SDS011;4644;48.858;9.184;2023-04-08T05:35:26;22.37;;;14.63;;
9218;SDS011;4644;48.858;9.184;2023-04-08T05:37:53;20.40;;;13.77;;
9218;SDS011;4644;48.858;9.184;2023-04-08T05:40:21;17.23;;;12.87;;
9218;SDS011;4644;48.858;9.184;2023-04-08T05:42:48;22.90;;;14.17;;
9218;SDS011;4644;48.858;9.184;2023-04-08T05:45:15;21.37;;;14.07;;
9218;SDS011;4644;48.858;9.184;2023-04-08T05:47:43;25.67;;;15.20;;
9218;SDS011;4644;48.858;9.184;2023-04-08T05:50:10;25.30;;;15.83;;
9218;SDS011;4644;48.858;9.184;2023-04-08T05:52:40;23.23;;;15.00;;
9218;SDS011;4644;48.858;9.184;2023-04-08T05:55:08;22.83;;;14.70;;
9218;SDS011;4644;48.858;9.184;2023-04-08T05:57:37;21.83;;;13.67;;
9218;SDS011;4644;48.858;9.184;2023-04-08T06:00:04;20.03;;;13.63;;
9218;SDS011;4644;48.858;9.184;2023-04-08T06:02:34;20.97;;;14.67;;
9218;SDS011;4644;48.858;9.184;2023-04-08T06:05:02;21.37;;;14.20;;
9218;SDS011;4644;48.858;9.184;2023-04-08T06:07:29;21.83;;;14.13;;
9218;SDS011;4644;48.858;9.184;2023-04-08T06:09:57;22.73;;;14.17;;
9218;SDS011;4644;48.858;9.184;2023-04-08T06:12:24;20.20;;;13.20;;
9218;SDS011;4644;48.858;9.184;2023-04-08T06:14:54;19.30;;;13.83;;
9218;SDS011;4644;48.858;9.184;2023-04-08T06:17:21;20.23;;;13.53;;
9218;SDS011;4644;48.858;9.184;2023-04-08T06:19:48;18.63;;;13.23;;
9218;SDS011;4644;48.858;9.184;2023-04-08T06:22:15;19.50;;;13.23;;
9218;SDS011;4644;48.858;9.184;2023-04-08T06:24:42;18.33;;;13.60;;
9218;SDS011;4644;48.858;9.184;2023-04-08T06:27:09;21.00;;;13.23;;
9218;SDS011;4644;48.858;9.184;2023-04-08T06:29:37;19.83;;;13.27;;
9218;SDS011;4644;48.858;9.184;2023-04-08T06:32:05;23.07;;;14.20;;
9218;SDS011;4644;48.858;9.184;2023-04-08T06:34:33;21.30;;;14.43;;
9218;SDS011;4644;48.858;9.184;2023-04-08T06:37:00;21.43;;;13.67;;
9218;SDS011;4644;48.858;9.184;2023-04-08T06:39:27;19.13;;;14.27;;
9218;SDS011;4644;48.858;9.184;2023-04-08T06:41:54;18.13;;;13.30;;
9218;SDS011;4644;48.858;9.184;2023-04-08T06:44:22;19.93;;;13.40;;
9218;SDS011;4644;48.858;9.184;2023-04-08T06:46:49;17.40;;;12.70;;
9218;SDS011;4644;48.858;9.184;2023-04-08T06:49:17;18.50;;;12.97;;
9218;SDS011;4644;48.858;9.184;2023-04-08T06:51:44;15.97;;;12.03;;
9218;SDS011;4644;48.858;9.184;2023-04-08T06:54:11;17.70;;;12.83;;
9218;SDS011;4644;48.858;9.184;2023-04-08T06:56:38;17.17;;;12.77;;
9218;SDS011;4644;48.858;9.184;2023-04-08T06:59:05;19.87;;;13.07;;
9218;SDS011;4644;48.858;9.184;2023-04-08T07:01:33;17.30;;;12.53;;
9218;SDS011;4644;48.858;9.184;2023-04-08T07:04:00;19.07;;;12.57;;
9218;SDS011;4644;48.858;9.184;2023-04-08T07:06:28;18.53;;;12.17;;
9218;SDS011;4644;48.858;9.184;2023-04-08T07:08:55;15.83;;;11.70;;
9218;SDS011;4644;48.858;9.184;2023-04-08T07:11:22;15.93;;;11.43;;
9218;SDS011;4644;48.858;9.184;2023-04-08T07:13:49;19.17;;;12.70;;
9218;SDS011;4644;48.858;9.184;2023-04-08T07:16:17;15.43;;;11.17;;
9218;SDS011;4644;48.858;9.184;2023-04-08T07:18:44;15.10;;;10.80;;
9218;SDS011;4644;48.858;9.184;2023-04-08T07:21:11;16.10;;;10.50;;
9218;SDS011;4644;48.858;9.184;2023-04-08T07:23:40;13.00;;;10.40;;
9218;SDS011;4644;48.858;9.184;2023-04-08T07:26:07;12.73;;;9.17;;
9218;SDS011;4644;48.858;9.184;2023-04-08T07:28:33;12.47;;;9.90;;
9218;SDS011;4644;48.858;9.184;2023-04-08T07:31:08;13.30;;;10.37;;
9218;SDS011;4644;48.858;9.184;2023-04-08T07:33:39;13.50;;;9.47;;
9218;SDS011;4644;48.858;9.184;2023-04-08T07:36:06;14.50;;;10.83;;
9218;SDS011;4644;48.858;9.184;2023-04-08T07:38:34;16.20;;;11.10;;
9218;SDS011;4644;48.858;9.184;2023-04-08T07:41:03;14.13;;;9.30;;
9218;SDS011;4644;48.858;9.184;2023-04-08T07:43:31;14.20;;;10.37;;
9218;SDS011;4644;48.858;9.184;2023-04-08T07:46:01;14.17;;;10.00;;
9218;SDS011;4644;48.858;9.184;2023-04-08T07:48:29;13.57;;;9.70;;
9218;SDS011;4644;48.858;9.184;2023-04-08T07:50:56;14.43;;;10.00;;
9218;SDS011;4644;48.858;9.184;2023-04-08T07:53:24;12.80;;;9.80;;
9218;SDS011;4644;48.858;9.184;2023-04-08T07:55:51;12.40;;;9.30;;
9218;SDS011;4644;48.858;9.184;2023-04-08T07:58:20;12.27;;;9.40;;
9218;SDS011;4644;48.858;9.184;2023-04-08T08:00:47;10.23;;;8.73;;
9218;SDS011;4644;48.858;9.184;2023-04-08T08:03:16;13.03;;;9.43;;
9218;SDS011;4644;48.858;9.184;2023-04-08T08:05:44;11.17;;;8.47;;
9218;SDS011;4644;48.858;9.184;2023-04-08T08:08:10;11.20;;;9.30;;
9218;SDS011;4644;48.858;9.184;2023-04-08T08:10:37;11.70;;;9.37;;
9218;SDS011;4644;48.858;9.184;2023-04-08T08:13:05;11.47;;;9.53;;
9218;SDS011;4644;48.858;9.184;2023-04-08T08:15:34;10.53;;;8.50;;
9218;SDS011;4644;48.858;9.184;2023-04-08T08:18:01;13.00;;;9.23;;
9218;SDS011;4644;48.858;9.184;2023-04-08T08:20:28;11.50;;;8.80;;
9218;SDS011;4644;48.858;9.184;2023-04-08T08:22:55;11.17;;;9.17;;
9218;SDS011;4644;48.858;9.184;2023-04-08T08:25:22;10.73;;;8.57;;
9218;SDS011;4644;48.858;9.184;2023-04-08T08:27:50;12.07;;;9.20;;
9218;SDS011;4644;48.858;9.184;2023-04-08T08:30:18;13.87;;;9.73;;
9218;SDS011;4644;48.858;9.184;2023-04-08T08:32:47;13.03;;;9.17;;
9218;SDS011;4644;48.858;9.184;2023-04-08T08:35:16;10.87;;;8.60;;
9218;SDS011;4644;48.858;9.184;2023-04-08T08:37:43;10.43;;;8.90;;
9218;SDS011;4644;48.858;9.184;2023-04-08T08:40:10;10.83;;;8.70;;
9218;SDS011;4644;48.858;9.184;2023-04-08T08:42:39;9.27;;;8.10;;
9218;SDS011;4644;48.858;9.184;2023-04-08T08:45:06;19.47;;;9.40;;
9218;SDS011;4644;48.858;9.184;2023-04-08T08:47:34;11.10;;;8.70;;
9218;SDS011;4644;48.858;9.184;2023-04-08T08:50:03;8.97;;;8.07;;
9218;SDS011;4644;48.858;9.184;2023-04-08T08:52:30;10.27;;;8.07;;
9218;SDS011;4644;48.858;9.184;2023-04-08T08:54:57;10.90;;;8.53;;
9218;SDS011;4644;48.858;9.184;2023-04-08T08:57:25;9.07;;;7.80;;
9218;SDS011;4644;48.858;9.184;2023-04-08T08:59:53;11.20;;;8.87;;
9218;SDS011;4644;48.858;9.184;2023-04-08T09:02:24;15.10;;;8.17;;
9218;SDS011;4644;48.858;9.184;2023-04-08T09:04:56;10.20;;;7.87;;
9218;SDS011;4644;48.858;9.184;2023-04-08T09:07:25;9.00;;;8.07;;
9218;SDS011;4644;48.858;9.184;2023-04-08T09:09:53;12.93;;;7.97;;
9218;SDS011;4644;48.858;9.184;2023-04-08T09:12:22;9.87;;;8.23;;
9218;SDS011;4644;48.858;9.184;2023-04-08T09:14:51;9.80;;;8.80;;
9218;SDS011;4644;48.858;9.184;2023-04-08T09:17:32;9.83;;;8.27;;
9218;SDS011;4644;48.858;9.184;2023-04-08T09:20:03;11.33;;;8.33;;
9218;SDS011;4644;48.858;9.184;2023-04-08T09:22:35;9.40;;;8.40;;
9218;SDS011;4644;48.858;9.184;2023-04-08T09:25:21;8.87;;;7.97;;
9218;SDS011;4644;48.858;9.184;2023-04-08T09:27:49;10.97;;;8.93;;
9218;SDS011;4644;48.858;9.184;2023-04-08T09:30:18;9.50;;;8.33;;
9218;SDS011;4644;48.858;9.184;2023-04-08T09:32:46;9.27;;;8.10;;
9218;SDS011;4644;48.858;9.184;2023-04-08T09:35:15;9.37;;;8.37;;
9218;SDS011;4644;48.858;9.184;2023-04-08T09:37:44;10.73;;;8.33;;
9218;SDS011;4644;48.858;9.184;2023-04-08T09:40:12;11.13;;;8.00;;
9218;SDS011;4644;48.858;9.184;2023-04-08T09:42:43;12.07;;;8.90;;
9218;SDS011;4644;48.858;9.184;2023-04-08T09:45:12;10.93;;;8.70;;
9218;SDS011;4644;48.858;9.184;2023-04-08T09:47:43;9.40;;;8.40;;
9218;SDS011;4644;48.858;9.184;2023-04-08T09:50:19;10.10;;;8.13;;
9218;SDS011;4644;48.858;9.184;2023-04-08T09:52:55;11.93;;;8.87;;
9218;SDS011;4644;48.858;9.184;2023-04-08T09:55:26;10.30;;;9.20;;
9218;SDS011;4644;48.858;9.184;2023-04-08T09:57:57;9.33;;;8.13;;
9218;SDS011;4644;48.858;9.184;2023-04-08T10:00:28;10.27;;;8.83;;
9218;SDS011;4644;48.858;9.184;2023-04-08T10:03:00;10.97;;;8.60;;
9218;SDS011;4644;48.858;9.184;2023-04-08T10:05:32;11.10;;;8.40;;
9218;SDS011;4644;48.858;9.184;2023-04-08T10:08:05;9.30;;;8.30;;
9218;SDS011;4644;48.858;9.184;2023-04-08T10:10:33;9.60;;;8.30;;
9218;SDS011;4644;48.858;9.184;2023-04-08T10:13:01;9.83;;;8.10;;
9218;SDS011;4644;48.858;9.184;2023-04-08T10:15:29;12.97;;;8.47;;
9218;SDS011;4644;48.858;9.184;2023-04-08T10:21:01;10.73;;;8.30;;
9218;SDS011;4644;48.858;9.184;2023-04-08T10:26:31;9.67;;;8.03;;
9218;SDS011;4644;48.858;9.184;2023-04-08T10:31:57;9.27;;;7.83;;
9218;SDS011;4644;48.858;9.184;2023-04-08T10:34:25;8.90;;;7.30;;
9218;SDS011;4644;48.858;9.184;2023-04-08T10:36:53;10.87;;;8.80;;
9218;SDS011;4644;48.858;9.184;2023-04-08T10:39:24;10.23;;;7.57;;
9218;SDS011;4644;48.858;9.184;2023-04-08T10:41:52;9.40;;;8.10;;
9218;SDS011;4644;48.858;9.184;2023-04-08T10:44:21;9.43;;;7.97;;
9218;SDS011;4644;48.858;9.184;2023-04-08T10:46:50;12.80;;;7.80;;
9218;SDS011;4644;48.858;9.184;2023-04-08T10:49:18;11.13;;;7.57;;
9218;SDS011;4644;48.858;9.184;2023-04-08T10:51:46;10.13;;;7.73;;
9218;SDS011;4644;48.858;9.184;2023-04-08T10:54:14;8.80;;;7.30;;
9218;SDS011;4644;48.858;9.184;2023-04-08T10:56:44;9.43;;;8.27;;
9218;SDS011;4644;48.858;9.184;2023-04-08T10:59:12;8.23;;;7.40;;
9218;SDS011;4644;48.858;9.184;2023-04-08T11:01:42;10.43;;;7.83;;
9218;SDS011;4644;48.858;9.184;2023-04-08T11:04:13;9.83;;;7.47;;
9218;SDS011;4644;48.858;9.184;2023-04-08T11:06:42;8.77;;;7.87;;
9218;SDS011;4644;48.858;9.184;2023-04-08T11:09:11;9.20;;;8.07;;
9218;SDS011;4644;48.858;9.184;2023-04-08T11:11:40;9.10;;;8.20;;
9218;SDS011;4644;48.858;9.184;2023-04-08T11:14:09;9.90;;;8.10;;
9218;SDS011;4644;48.858;9.184;2023-04-08T11:16:37;24.97;;;9.20;;
9218;SDS011;4644;48.858;9.184;2023-04-08T11:19:05;19.93;;;9.87;;
9218;SDS011;4644;48.858;9.184;2023-04-08T11:21:34;9.00;;;8.10;;
9218;SDS011;4644;48.858;9.184;2023-04-08T11:24:05;9.57;;;7.50;;
9218;SDS011;4644;48.858;9.184;2023-04-08T11:26:36;13.57;;;7.97;;
9218;SDS011;4644;48.858;9.184;2023-04-08T11:29:04;19.33;;;8.13;;
9218;SDS011;4644;48.858;9.184;2023-04-08T11:31:33;8.93;;;7.20;;
9218;SDS011;4644;48.858;9.184;2023-04-08T11:34:00;8.53;;;7.60;;
9218;SDS011;4644;48.858;9.184;2023-04-08T11:36:28;8.87;;;7.60;;
9218;SDS011;4644;48.858;9.184;2023-04-08T11:38:55;8.23;;;7.40;;
9218;SDS011;4644;48.858;9.184;2023-04-08T11:41:22;8.27;;;7.30;;
9218;SDS011;4644;48.858;9.184;2023-04-08T11:43:53;8.17;;;7.37;;
9218;SDS011;4644;48.858;9.184;2023-04-08T11:46:21;9.27;;;7.93;;
9218;SDS011;4644;48.858;9.184;2023-04-08T11:49:00;9.37;;;7.27;;
9218;SDS011;4644;48.858;9.184;2023-04-08T11:51:29;10.03;;;7.40;;
9218;SDS011;4644;48.858;9.184;2023-04-08T11:53:56;8.70;;;7.80;;
9218;SDS011;4644;48.858;9.184;2023-04-08T11:56:24;8.80;;;7.90;;
9218;SDS011;4644;48.858;9.184;2023-04-08T11:58:54;12.93;;;7.90;;
9218;SDS011;4644;48.858;9.184;2023-04-08T12:01:21;9.33;;;7.50;;
9218;SDS011;4644;48.858;9.184;2023-04-08T12:03:55;9.07;;;7.57;;
9218;SDS011;4644;48.858;9.184;2023-04-08T12:06:24;8.70;;;7.07;;
9218;SDS011;4644;48.858;9.184;2023-04-08T12:08:53;10.43;;;8.07;;
9218;SDS011;4644;48.858;9.184;2023-04-08T12:11:20;7.70;;;6.90;;
9218;SDS011;4644;48.858;9.184;2023-04-08T12:13:48;8.37;;;7.47;;
9218;SDS011;4644;48.858;9.184;2023-04-08T12:16:16;8.37;;;7.47;;
9218;SDS011;4644;48.858;9.184;2023-04-08T12:18:44;11.63;;;8.10;;
9218;SDS011;4644;48.858;9.184;2023-04-08T12:21:11;8.53;;;7.27;;
9218;SDS011;4644;48.858;9.184;2023-04-08T12:23:39;10.30;;;7.43;;
9218;SDS011;4644;48.858;9.184;2023-04-08T12:26:06;9.27;;;7.60;;
9218;SDS011;4644;48.858;9.184;2023-04-08T12:28:33;10.47;;;7.70;;
9218;SDS011;4644;48.858;9.184;2023-04-08T12:31:01;7.73;;;6.90;;
9218;SDS011;4644;48.858;9.184;2023-04-08T12:33:28;11.00;;;7.40;;
9218;SDS011;4644;48.858;9.184;2023-04-08T12:35:56;8.87;;;7.10;;
9218;SDS011;4644;48.858;9.184;2023-04-08T12:38:23;8.83;;;7.93;;
9218;SDS011;4644;48.858;9.184;2023-04-08T12:40:52;8.20;;;7.23;;
9218;SDS011;4644;48.858;9.184;2023-04-08T12:43:20;8.27;;;6.93;;
9218;SDS011;4644;48.858;9.184;2023-04-08T12:45:48;8.03;;;7.23;;
9218;SDS011;4644;48.858;9.184;2023-04-08T12:48:15;8.23;;;7.33;;
9218;SDS011;4644;48.858;9.184;2023-04-08T12:50:43;11.50;;;7.90;;
9218;SDS011;4644;48.858;9.184;2023-04-08T12:53:10;11.43;;;7.53;;
9218;SDS011;4644;48.858;9.184;2023-04-08T12:55:37;17.03;;;8.13;;
9218;SDS011;4644;48.858;9.184;2023-04-08T12:58:05;8.97;;;7.97;;
9218;SDS011;4644;48.858;9.184;2023-04-08T13:00:32;8.23;;;7.30;;
9218;SDS011;4644;48.858;9.184;2023-04-08T13:03:02;10.57;;;7.40;;
9218;SDS011;4644;48.858;9.184;2023-04-08T13:05:30;9.27;;;7.83;;
9218;SDS011;4644;48.858;9.184;2023-04-08T13:07:57;8.50;;;7.53;;
9218;SDS011;4644;48.858;9.184;2023-04-08T13:10:24;8.17;;;7.10;;
9218;SDS011;4644;48.858;9.184;2023-04-08T13:12:52;10.67;;;7.57;;
9218;SDS011;4644;48.858;9.184;2023-04-08T13:15:20;8.50;;;7.57;;
9218;SDS011;4644;48.858;9.184;2023-04-08T13:17:47;8.43;;;7.30;;
9218;SDS011;4644;48.858;9.184;2023-04-08T13:20:15;10.83;;;7.37;;
9218;SDS011;4644;48.858;9.184;2023-04-08T13:22:42;12.73;;;7.53;;
9218;SDS011;4644;48.858;9.184;2023-04-08T13:25:09;8.23;;;7.43;;
9218;SDS011;4644;48.858;9.184;2023-04-08T13:27:36;8.93;;;8.03;;
9218;SDS011;4644;48.858;9.184;2023-04-08T13:30:04;10.07;;;7.77;;
9218;SDS011;4644;48.858;9.184;2023-04-08T13:32:33;11.63;;;7.20;;
9218;SDS011;4644;48.858;9.184;2023-04-08T13:35:00;9.00;;;7.77;;
9218;SDS011;4644;48.858;9.184;2023-04-08T13:37:28;9.40;;;7.70;;
9218;SDS011;4644;48.858;9.184;2023-04-08T13:39:55;8.33;;;7.03;;
9218;SDS011;4644;48.858;9.184;2023-04-08T13:42:22;8.97;;;7.83;;
9218;SDS011;4644;48.858;9.184;2023-04-08T13:44:49;8.43;;;7.47;;
9218;SDS011;4644;48.858;9.184;2023-04-08T13:47:16;8.17;;;7.07;;
9218;SDS011;4644;48.858;9.184;2023-04-08T13:49:45;7.70;;;6.97;;
9218;SDS011;4644;48.858;9.184;2023-04-08T13:52:12;8.97;;;6.97;;
9218;SDS011;4644;48.858;9.184;2023-04-08T13:54:39;8.23;;;7.30;;
9218;SDS011;4644;48.858;9.184;2023-04-08T13:57:06;14.07;;;7.23;;
9218;SDS011;4644;48.858;9.184;2023-04-08T13:59:34;8.77;;;7.17;;
9218;SDS011;4644;48.858;9.184;2023-04-08T14:02:01;9.70;;;7.30;;
9218;SDS011;4644;48.858;9.184;2023-04-08T14:04:28;8.83;;;6.87;;
9218;SDS011;4644;48.858;9.184;2023-04-08T14:06:56;8.00;;;7.00;;
9218;SDS011;4644;48.858;9.184;2023-04-08T14:09:24;8.60;;;6.67;;
9218;SDS011;4644;48.858;9.184;2023-04-08T14:11:52;8.83;;;7.13;;
9218;SDS011;4644;48.858;9.184;2023-04-08T14:14:19;8.03;;;7.20;;
9218;SDS011;4644;48.858;9.184;2023-04-08T14:16:45;8.47;;;7.17;;
9218;SDS011;4644;48.858;9.184;2023-04-08T14:19:13;7.10;;;6.30;;
9218;SDS011;4644;48.858;9.184;2023-04-08T14:21:40;7.17;;;6.47;;
9218;SDS011;4644;48.858;9.184;2023-04-08T14:24:09;7.57;;;6.27;;
9218;SDS011;4644;48.858;9.184;2023-04-08T14:26:36;7.97;;;6.90;;
9218;SDS011;4644;48.858;9.184;2023-04-08T14:29:06;7.57;;;6.50;;
9218;SDS011;4644;48.858;9.184;2023-04-08T14:31:34;8.63;;;6.47;;
9218;SDS011;4644;48.858;9.184;2023-04-08T14:34:01;6.27;;;5.67;;
9218;SDS011;4644;48.858;9.184;2023-04-08T14:36:29;9.57;;;6.30;;
9218;SDS011;4644;48.858;9.184;2023-04-08T14:38:56;6.83;;;6.07;;
9218;SDS011;4644;48.858;9.184;2023-04-08T14:41:25;7.67;;;5.33;;
9218;SDS011;4644;48.858;9.184;2023-04-08T14:43:52;6.13;;;5.20;;
9218;SDS011;4644;48.858;9.184;2023-04-08T14:46:19;7.43;;;5.67;;
9218;SDS011;4644;48.858;9.184;2023-04-08T14:48:47;6.60;;;5.13;;
9218;SDS011;4644;48.858;9.184;2023-04-08T14:51:14;8.50;;;5.30;;
9218;SDS011;4644;48.858;9.184;2023-04-08T14:53:41;5.60;;;5.10;;
9218;SDS011;4644;48.858;9.184;2023-04-08T14:56:08;7.77;;;5.47;;
9218;SDS011;4644;48.858;9.184;2023-04-08T14:58:36;7.53;;;5.27;;
9218;SDS011;4644;48.858;9.184;2023-04-08T15:01:03;7.37;;;5.27;;
9218;SDS011;4644;48.858;9.184;2023-04-08T15:03:31;6.40;;;5.50;;
9218;SDS011;4644;48.858;9.184;2023-04-08T15:05:58;5.43;;;4.93;;
9218;SDS011;4644;48.858;9.184;2023-04-08T15:08:25;5.37;;;4.80;;
9218;SDS011;4644;48.858;9.184;2023-04-08T15:10:52;5.53;;;4.93;;
9218;SDS011;4644;48.858;9.184;2023-04-08T15:13:21;5.43;;;4.70;;
9218;SDS011;4644;48.858;9.184;2023-04-08T15:15:49;5.50;;;4.20;;